createdAt,value
2022-12-04T00:00:44.955Z,1016.80
2022-12-04T00:01:44.949Z,1016.78
2022-12-04T00:02:45.015Z,1016.83
2022-12-04T00:03:44.935Z,1016.72
2022-12-04T00:04:45.016Z,1016.77
2022-12-04T00:05:44.936Z,1016.80
2022-12-04T00:06:44.912Z,1016.73
2022-12-04T00:07:44.976Z,1016.84
2022-12-04T00:08:44.901Z,1016.87
2022-12-04T00:09:44.905Z,1016.83
2022-12-04T00:10:44.882Z,1016.87
2022-12-04T00:11:44.878Z,1016.85
2022-12-04T00:12:44.883Z,1016.86
2022-12-04T00:13:44.887Z,1016.83
2022-12-04T00:15:23.354Z,1016.86
2022-12-04T00:15:44.859Z,1016.84
2022-12-04T00:16:44.921Z,1016.88
2022-12-04T00:17:44.856Z,1016.87
2022-12-04T00:18:44.855Z,1016.90
2022-12-04T00:19:44.864Z,1016.80
2022-12-04T00:20:44.850Z,1016.82
2022-12-04T00:21:44.832Z,1016.78
2022-12-04T00:22:44.845Z,1016.76
2022-12-04T00:23:44.826Z,1016.81
2022-12-04T00:24:44.820Z,1016.78
2022-12-04T00:25:44.806Z,1016.80
2022-12-04T00:26:44.805Z,1016.78
2022-12-04T00:27:44.816Z,1016.74
2022-12-04T00:28:44.787Z,1016.76
2022-12-04T00:29:44.792Z,1016.80
2022-12-04T00:30:44.807Z,1016.78
2022-12-04T00:31:44.812Z,1016.74
2022-12-04T00:32:44.771Z,1016.79
2022-12-04T00:33:44.791Z,1016.80
2022-12-04T00:34:44.772Z,1016.74
2022-12-04T00:35:44.757Z,1016.80
2022-12-04T00:36:44.777Z,1016.76
2022-12-04T00:37:44.753Z,1016.78
2022-12-04T00:38:44.753Z,1016.75
2022-12-04T00:39:44.732Z,1016.76
2022-12-04T00:40:44.734Z,1016.68
2022-12-04T00:41:44.747Z,1016.65
2022-12-04T00:42:44.726Z,1016.72
2022-12-04T00:43:44.722Z,1016.72
2022-12-04T00:44:44.737Z,1016.70
2022-12-04T00:45:44.750Z,1016.70
2022-12-04T00:46:44.714Z,1016.72
2022-12-04T00:47:44.701Z,1016.71
2022-12-04T00:48:44.725Z,1016.72
2022-12-04T00:49:44.707Z,1016.72
2022-12-04T00:50:44.696Z,1016.68
2022-12-04T00:51:44.695Z,1016.67
2022-12-04T00:52:44.685Z,1016.70
2022-12-04T00:53:44.691Z,1016.71
2022-12-04T00:54:44.660Z,1016.75
2022-12-04T00:55:44.676Z,1016.72
2022-12-04T00:56:44.661Z,1016.74
2022-12-04T00:57:44.639Z,1016.71
2022-12-04T00:58:44.648Z,1016.67
2022-12-04T00:59:44.649Z,1016.69
2022-12-04T01:00:44.704Z,1016.71
2022-12-04T01:01:44.681Z,1016.68
2022-12-04T01:02:44.646Z,1016.70
2022-12-04T01:03:44.609Z,1016.72
2022-12-04T01:04:44.641Z,1016.73
2022-12-04T01:05:44.604Z,1016.73
2022-12-04T01:06:44.608Z,1016.70
2022-12-04T01:07:44.645Z,1016.72
2022-12-04T01:08:44.583Z,1016.66
2022-12-04T01:09:44.609Z,1016.68
2022-12-04T01:10:44.601Z,1016.66
2022-12-04T01:11:44.587Z,1016.61
2022-12-04T01:12:44.587Z,1016.67
2022-12-04T01:13:44.587Z,1016.72
2022-12-04T01:14:44.556Z,1016.67
2022-12-04T01:15:44.585Z,1016.74
2022-12-04T01:16:44.698Z,1016.73
2022-12-04T01:17:44.550Z,1016.76
2022-12-04T01:18:44.557Z,1016.73
2022-12-04T01:19:44.533Z,1016.70
2022-12-04T01:20:44.544Z,1016.67
2022-12-04T01:21:44.511Z,1016.72
2022-12-04T01:22:44.512Z,1016.71
2022-12-04T01:23:44.521Z,1016.70
2022-12-04T01:24:44.503Z,1016.70
2022-12-04T01:25:44.510Z,1016.69
2022-12-04T01:26:44.517Z,1016.69
2022-12-04T01:27:44.495Z,1016.71
2022-12-04T01:28:44.490Z,1016.72
2022-12-04T01:29:44.488Z,1016.72
2022-12-04T01:30:44.495Z,1016.73
2022-12-04T01:31:44.566Z,1016.68
2022-12-04T01:32:44.456Z,1016.67
2022-12-04T01:33:44.489Z,1016.65
2022-12-04T01:34:44.476Z,1016.71
2022-12-04T01:35:44.443Z,1016.65
2022-12-04T01:36:44.462Z,1016.62
2022-12-04T01:37:44.453Z,1016.61
2022-12-04T01:38:44.440Z,1016.58
2022-12-04T01:39:44.428Z,1016.61
2022-12-04T01:40:44.436Z,1016.61
2022-12-04T01:41:44.439Z,1016.63
2022-12-04T01:42:44.419Z,1016.57
2022-12-04T01:43:44.408Z,1016.60
2022-12-04T01:44:44.407Z,1016.55
2022-12-04T01:45:44.457Z,1016.47
2022-12-04T01:46:44.412Z,1016.49
2022-12-04T01:47:44.391Z,1016.45
2022-12-04T01:48:44.382Z,1016.45
2022-12-04T01:49:44.374Z,1016.47
2022-12-04T01:50:44.369Z,1016.49
2022-12-04T01:51:44.363Z,1016.49
2022-12-04T01:52:44.393Z,1016.50
2022-12-04T01:53:44.366Z,1016.53
2022-12-04T01:54:44.375Z,1016.51
2022-12-04T01:55:44.336Z,1016.53
2022-12-04T01:56:44.344Z,1016.53
2022-12-04T01:57:44.364Z,1016.52
2022-12-04T01:58:44.328Z,1016.48
2022-12-04T01:59:44.345Z,1016.49
2022-12-04T02:00:46.418Z,1016.48
2022-12-04T02:01:44.350Z,1016.48
2022-12-04T02:02:44.419Z,1016.48
2022-12-04T02:03:44.299Z,1016.46
2022-12-04T02:04:44.301Z,1016.48
2022-12-04T02:05:44.301Z,1016.48
2022-12-04T02:06:44.313Z,1016.49
2022-12-04T02:07:44.372Z,1016.51
2022-12-04T02:08:44.305Z,1016.47
2022-12-04T02:09:44.276Z,1016.45
2022-12-04T02:10:44.272Z,1016.47
2022-12-04T02:11:44.262Z,1016.39
2022-12-04T02:12:44.256Z,1016.35
2022-12-04T02:13:44.275Z,1016.33
2022-12-04T02:14:44.250Z,1016.33
2022-12-04T02:15:44.248Z,1016.28
2022-12-04T02:16:44.272Z,1016.29
2022-12-04T02:17:44.223Z,1016.29
2022-12-04T02:18:44.232Z,1016.30
2022-12-04T02:19:44.229Z,1016.31
2022-12-04T02:20:44.210Z,1016.26
2022-12-04T02:21:44.208Z,1016.26
2022-12-04T02:22:44.205Z,1016.27
2022-12-04T02:23:44.205Z,1016.29
2022-12-04T02:24:49.779Z,1016.24
2022-12-04T02:25:44.186Z,1016.26
2022-12-04T02:26:44.191Z,1016.27
2022-12-04T02:27:44.197Z,1016.25
2022-12-04T02:28:44.191Z,1016.29
2022-12-04T02:29:44.200Z,1016.29
2022-12-04T02:30:44.196Z,1016.28
2022-12-04T02:31:44.151Z,1016.27
2022-12-04T02:32:44.167Z,1016.28
2022-12-04T02:33:44.152Z,1016.29
2022-12-04T02:34:44.175Z,1016.31
2022-12-04T02:35:44.166Z,1016.30
2022-12-04T02:36:44.129Z,1016.24
2022-12-04T02:37:44.128Z,1016.18
2022-12-04T02:38:44.127Z,1016.24
2022-12-04T02:39:44.123Z,1016.22
2022-12-04T02:40:44.136Z,1016.23
2022-12-04T02:41:44.119Z,1016.21
2022-12-04T02:42:44.106Z,1016.19
2022-12-04T02:43:44.100Z,1016.12
2022-12-04T02:44:44.090Z,1016.04
2022-12-04T02:47:38.891Z,1016.00
2022-12-04T02:48:17.153Z,1016.07
2022-12-04T02:49:17.184Z,1016.12
2022-12-04T02:50:17.133Z,1016.10
2022-12-04T02:51:17.132Z,1016.06
2022-12-04T02:52:17.136Z,1016.05
2022-12-04T02:53:17.138Z,1016.01
2022-12-04T02:54:17.775Z,1015.96
2022-12-04T02:55:17.555Z,1015.94
2022-12-04T02:56:17.893Z,1015.84
2022-12-04T02:57:17.113Z,1015.89
2022-12-04T02:58:17.101Z,1015.89
2022-12-04T02:59:17.091Z,1015.87
2022-12-04T03:00:17.101Z,1015.85
2022-12-04T03:01:17.136Z,1015.83
2022-12-04T03:02:17.143Z,1015.85
2022-12-04T03:03:17.071Z,1015.85
2022-12-04T03:04:17.069Z,1015.84
2022-12-04T03:05:17.065Z,1015.89
2022-12-04T03:06:17.043Z,1015.89
2022-12-04T03:07:17.076Z,1015.88
2022-12-04T03:08:17.210Z,1015.95
2022-12-04T03:09:17.041Z,1015.95
2022-12-04T03:10:17.043Z,1015.92
2022-12-04T03:11:17.019Z,1016.02
2022-12-04T03:12:17.042Z,1015.98
2022-12-04T03:13:17.033Z,1015.96
2022-12-04T03:14:17.016Z,1016.02
2022-12-04T03:15:17.017Z,1015.98
2022-12-04T03:16:17.046Z,1016.03
2022-12-04T03:17:17.015Z,1015.98
2022-12-04T03:18:17.006Z,1015.94
2022-12-04T03:19:16.997Z,1015.90
2022-12-04T03:20:17.003Z,1015.94
2022-12-04T03:21:17.022Z,1016.00
2022-12-04T03:22:16.974Z,1015.98
2022-12-04T03:23:16.998Z,1015.91
2022-12-04T03:24:16.971Z,1015.94
2022-12-04T03:25:16.973Z,1015.91
2022-12-04T03:26:16.972Z,1015.95
2022-12-04T03:27:16.956Z,1015.95
2022-12-04T03:28:16.942Z,1015.90
2022-12-04T03:29:16.932Z,1015.87
2022-12-04T03:30:16.931Z,1015.89
2022-12-04T03:31:16.955Z,1015.89
2022-12-04T03:32:16.933Z,1015.87
2022-12-04T03:33:16.965Z,1015.87
2022-12-04T03:34:16.905Z,1015.84
2022-12-04T03:35:16.934Z,1015.92
2022-12-04T03:36:16.932Z,1015.90
2022-12-04T03:37:16.927Z,1015.97
2022-12-04T03:38:16.897Z,1015.92
2022-12-04T03:39:16.892Z,1015.90
2022-12-04T03:40:16.883Z,1015.90
2022-12-04T03:41:16.888Z,1015.94
2022-12-04T03:42:16.876Z,1015.92
2022-12-04T03:43:16.891Z,1015.96
2022-12-04T03:44:16.861Z,1016.01
2022-12-04T03:45:16.865Z,1015.99
2022-12-04T03:46:16.989Z,1015.92
2022-12-04T03:47:16.841Z,1015.94
2022-12-04T03:48:22.653Z,1015.98
2022-12-04T03:49:16.841Z,1015.98
2022-12-04T03:50:16.836Z,1016.03
2022-12-04T03:51:16.868Z,1016.02
2022-12-04T03:52:16.818Z,1016.04
2022-12-04T03:53:16.841Z,1016.07
2022-12-04T03:54:16.806Z,1015.96
2022-12-04T03:55:16.820Z,1016.00
2022-12-04T03:56:16.806Z,1016.04
2022-12-04T03:57:16.805Z,1016.01
2022-12-04T03:58:16.791Z,1015.94
2022-12-04T03:59:16.819Z,1015.98
2022-12-04T04:00:16.795Z,1015.99
2022-12-04T04:01:16.857Z,1015.93
2022-12-04T04:02:16.841Z,1015.96
2022-12-04T04:03:16.800Z,1015.97
2022-12-04T04:04:16.788Z,1015.95
2022-12-04T04:05:16.759Z,1015.91
2022-12-04T04:06:16.750Z,1015.89
2022-12-04T04:07:16.739Z,1015.92
2022-12-04T04:08:16.783Z,1015.88
2022-12-04T04:09:16.781Z,1015.88
2022-12-04T04:10:16.741Z,1015.93
2022-12-04T04:11:16.733Z,1015.91
2022-12-04T04:12:16.733Z,1015.88
2022-12-04T04:13:16.738Z,1015.91
2022-12-04T04:14:16.719Z,1015.89
2022-12-04T04:15:16.720Z,1015.93
2022-12-04T04:16:16.819Z,1015.89
2022-12-04T04:17:16.696Z,1015.93
2022-12-04T04:18:16.684Z,1015.92
2022-12-04T04:19:16.679Z,1015.93
2022-12-04T04:20:16.700Z,1015.96
2022-12-04T04:21:16.685Z,1015.93
2022-12-04T04:22:16.659Z,1015.92
2022-12-04T04:23:16.666Z,1015.94
2022-12-04T04:24:16.657Z,1015.94
2022-12-04T04:25:16.644Z,1015.87
2022-12-04T04:26:16.650Z,1015.81
2022-12-04T04:27:16.658Z,1015.85
2022-12-04T04:28:16.670Z,1015.79
2022-12-04T04:29:16.636Z,1015.73
2022-12-04T04:30:16.630Z,1015.74
2022-12-04T04:31:16.679Z,1015.76
2022-12-04T04:32:16.657Z,1015.76
2022-12-04T04:33:16.611Z,1015.75
2022-12-04T04:34:16.608Z,1015.72
2022-12-04T04:35:16.615Z,1015.71
2022-12-04T04:36:16.613Z,1015.75
2022-12-04T04:37:16.586Z,1015.75
2022-12-04T04:38:16.590Z,1015.72
2022-12-04T04:39:16.585Z,1015.74
2022-12-04T04:40:16.572Z,1015.77
2022-12-04T04:41:16.581Z,1015.74
2022-12-04T04:42:16.584Z,1015.75
2022-12-04T04:43:16.564Z,1015.80
2022-12-04T04:44:16.573Z,1015.81
2022-12-04T04:45:16.557Z,1015.81
2022-12-04T04:46:16.574Z,1015.85
2022-12-04T04:47:16.550Z,1015.78
2022-12-04T04:48:16.540Z,1015.82
2022-12-04T04:49:16.535Z,1015.80
2022-12-04T04:50:16.520Z,1015.79
2022-12-04T04:51:16.522Z,1015.82
2022-12-04T04:52:16.533Z,1015.78
2022-12-04T04:53:16.520Z,1015.76
2022-12-04T04:54:16.517Z,1015.73
2022-12-04T04:55:16.500Z,1015.76
2022-12-04T04:56:16.488Z,1015.71
2022-12-04T04:57:16.494Z,1015.79
2022-12-04T04:58:16.516Z,1015.81
2022-12-04T04:59:16.466Z,1015.79
2022-12-04T05:00:16.467Z,1015.82
2022-12-04T05:01:16.531Z,1015.80
2022-12-04T05:02:16.519Z,1015.84
2022-12-04T05:03:16.580Z,1015.89
2022-12-04T05:04:16.462Z,1015.83
2022-12-04T05:05:16.475Z,1015.85
2022-12-04T05:06:16.437Z,1015.85
2022-12-04T05:07:16.450Z,1015.83
2022-12-04T05:08:16.503Z,1015.84
2022-12-04T05:09:16.462Z,1015.84
2022-12-04T05:10:16.427Z,1015.85
2022-12-04T05:11:16.413Z,1015.86
2022-12-04T05:12:16.411Z,1015.89
2022-12-04T05:13:16.400Z,1015.90
2022-12-04T05:14:16.409Z,1015.87
2022-12-04T05:15:16.412Z,1015.87
2022-12-04T05:16:16.474Z,1015.93
2022-12-04T05:17:16.391Z,1015.89
2022-12-04T05:18:24.314Z,1015.91
2022-12-04T05:19:16.376Z,1015.90
2022-12-04T05:20:16.393Z,1015.93
2022-12-04T05:21:16.358Z,1015.92
2022-12-04T05:22:16.364Z,1015.87
2022-12-04T05:23:16.346Z,1015.88
2022-12-04T05:24:16.359Z,1015.85
2022-12-04T05:25:16.343Z,1015.90
2022-12-04T05:26:16.344Z,1015.89
2022-12-04T05:27:16.322Z,1015.85
2022-12-04T05:28:16.329Z,1015.82
2022-12-04T05:29:16.325Z,1015.80
2022-12-04T05:30:16.309Z,1015.77
2022-12-04T05:31:16.400Z,1015.78
2022-12-04T05:32:16.296Z,1015.75
2022-12-04T05:33:16.317Z,1015.78
2022-12-04T05:34:16.300Z,1015.83
2022-12-04T05:35:16.293Z,1015.83
2022-12-04T05:36:16.301Z,1015.81
2022-12-04T05:37:16.283Z,1015.92
2022-12-04T05:38:16.266Z,1015.92
2022-12-04T05:39:16.285Z,1015.93
2022-12-04T05:40:16.269Z,1015.88
2022-12-04T05:41:16.273Z,1015.94
2022-12-04T05:42:16.264Z,1015.88
2022-12-04T05:43:16.243Z,1015.89
2022-12-04T05:44:16.244Z,1015.89
2022-12-04T05:45:16.249Z,1015.89
2022-12-04T05:46:16.310Z,1015.89
2022-12-04T05:47:16.232Z,1015.93
2022-12-04T05:48:16.220Z,1015.96
2022-12-04T05:49:16.232Z,1015.98
2022-12-04T05:50:16.219Z,1015.95
2022-12-04T05:51:16.216Z,1015.96
2022-12-04T05:52:16.219Z,1015.95
2022-12-04T05:53:16.207Z,1015.88
2022-12-04T05:54:16.201Z,1015.86
2022-12-04T05:55:16.190Z,1015.87
2022-12-04T05:56:16.179Z,1015.85
2022-12-04T05:57:16.186Z,1015.84
2022-12-04T05:58:16.175Z,1015.84
2022-12-04T05:59:16.159Z,1015.84
2022-12-04T06:00:16.174Z,1015.82
2022-12-04T06:01:16.165Z,1015.78
2022-12-04T06:02:16.232Z,1015.81
2022-12-04T06:03:16.244Z,1015.77
2022-12-04T06:04:16.146Z,1015.74
2022-12-04T06:05:16.153Z,1015.79
2022-12-04T06:06:21.094Z,1015.79
2022-12-04T06:07:16.129Z,1015.82
2022-12-04T06:08:16.190Z,1015.83
2022-12-04T06:09:16.122Z,1015.77
2022-12-04T06:10:16.112Z,1015.77
2022-12-04T06:11:16.099Z,1015.75
2022-12-04T06:12:16.108Z,1015.74
2022-12-04T06:13:16.091Z,1015.80
2022-12-04T06:14:16.110Z,1015.81
2022-12-04T06:15:16.094Z,1015.80
2022-12-04T06:16:16.118Z,1015.85
2022-12-04T06:17:16.073Z,1015.86
2022-12-04T06:18:16.075Z,1015.85
2022-12-04T06:19:16.071Z,1015.85
2022-12-04T06:20:16.150Z,1015.82
2022-12-04T06:21:16.060Z,1015.79
2022-12-04T06:22:16.061Z,1015.81
2022-12-04T06:23:16.042Z,1015.81
2022-12-04T06:24:16.057Z,1015.81
2022-12-04T06:25:16.042Z,1015.82
2022-12-04T06:26:16.037Z,1015.81
2022-12-04T06:27:31.466Z,1015.78
2022-12-04T06:28:16.059Z,1015.76
2022-12-04T06:29:16.014Z,1015.73
2022-12-04T06:30:16.131Z,1015.78
2022-12-04T06:31:16.078Z,1015.76
2022-12-04T06:32:21.105Z,1015.77
2022-12-04T06:33:16.003Z,1015.77
2022-12-04T06:34:16.011Z,1015.82
2022-12-04T06:35:16.092Z,1015.84
2022-12-04T06:36:15.977Z,1015.80
2022-12-04T06:37:15.981Z,1015.74
2022-12-04T06:38:15.980Z,1015.81
2022-12-04T06:39:18.972Z,1015.79
2022-12-04T06:40:15.977Z,1015.72
2022-12-04T06:41:15.946Z,1015.74
2022-12-04T06:42:15.957Z,1015.76
2022-12-04T06:43:15.961Z,1015.76
2022-12-04T06:44:15.933Z,1015.75
2022-12-04T06:45:15.963Z,1015.83
2022-12-04T06:46:15.977Z,1015.82
2022-12-04T06:47:15.926Z,1015.75
2022-12-04T06:48:15.930Z,1015.81
2022-12-04T06:49:15.924Z,1015.82
2022-12-04T06:50:15.911Z,1015.77
2022-12-04T06:51:15.908Z,1015.76
2022-12-04T06:52:15.921Z,1015.81
2022-12-04T06:53:15.886Z,1015.80
2022-12-04T06:54:15.895Z,1015.79
2022-12-04T06:55:15.986Z,1015.81
2022-12-04T06:56:15.876Z,1015.80
2022-12-04T06:57:15.871Z,1015.74
2022-12-04T06:58:15.884Z,1015.73
2022-12-04T06:59:15.856Z,1015.79
2022-12-04T07:00:15.951Z,1015.77
2022-12-04T07:01:15.976Z,1015.73
2022-12-04T07:02:15.917Z,1015.72
2022-12-04T07:03:15.851Z,1015.68
2022-12-04T07:04:15.828Z,1015.71
2022-12-04T07:05:15.845Z,1015.74
2022-12-04T07:06:15.837Z,1015.76
2022-12-04T07:07:15.823Z,1015.78
2022-12-04T07:08:15.856Z,1015.75
2022-12-04T07:09:15.832Z,1015.76
2022-12-04T07:10:15.818Z,1015.76
2022-12-04T07:11:15.810Z,1015.76
2022-12-04T07:12:15.797Z,1015.79
2022-12-04T07:13:15.798Z,1015.81
2022-12-04T07:14:15.815Z,1015.77
2022-12-04T07:15:15.815Z,1015.78
2022-12-04T07:16:15.852Z,1015.76
2022-12-04T07:17:15.839Z,1015.72
2022-12-04T07:18:15.776Z,1015.76
2022-12-04T07:19:15.773Z,1015.70
2022-12-04T07:20:15.781Z,1015.75
2022-12-04T07:21:15.762Z,1015.72
2022-12-04T07:22:15.761Z,1015.73
2022-12-04T07:23:15.762Z,1015.72
2022-12-04T07:24:15.745Z,1015.71
2022-12-04T07:25:15.750Z,1015.73
2022-12-04T07:26:15.725Z,1015.72
2022-12-04T07:27:15.717Z,1015.74
2022-12-04T07:28:15.732Z,1015.71
2022-12-04T07:29:15.716Z,1015.74
2022-12-04T07:30:16.148Z,1015.75
2022-12-04T07:31:15.745Z,1015.70
2022-12-04T07:32:15.776Z,1015.70
2022-12-04T07:33:15.706Z,1015.71
2022-12-04T07:34:15.688Z,1015.72
2022-12-04T07:35:15.693Z,1015.71
2022-12-04T07:36:15.689Z,1015.76
2022-12-04T07:37:15.682Z,1015.74
2022-12-04T07:38:15.685Z,1015.80
2022-12-04T07:39:15.677Z,1015.79
2022-12-04T07:40:15.684Z,1015.76
2022-12-04T07:41:15.686Z,1015.81
2022-12-04T07:42:18.473Z,1015.85
2022-12-04T07:43:15.652Z,1015.86
2022-12-04T07:44:15.633Z,1015.87
2022-12-04T07:45:15.646Z,1015.90
2022-12-04T07:46:15.755Z,1015.91
2022-12-04T07:47:15.636Z,1015.87
2022-12-04T07:48:15.629Z,1015.87
2022-12-04T07:49:15.613Z,1015.88
2022-12-04T07:50:15.619Z,1015.84
2022-12-04T07:51:15.636Z,1015.81
2022-12-04T07:52:15.608Z,1015.78
2022-12-04T07:53:15.595Z,1015.78
2022-12-04T07:54:15.620Z,1015.85
2022-12-04T07:55:20.135Z,1015.78
2022-12-04T07:56:15.579Z,1015.81
2022-12-04T07:57:15.589Z,1015.85
2022-12-04T07:58:15.579Z,1015.83
2022-12-04T07:59:15.583Z,1015.85
2022-12-04T08:00:15.569Z,1015.89
2022-12-04T08:01:15.761Z,1015.92
2022-12-04T08:02:15.548Z,1015.90
2022-12-04T08:03:15.538Z,1015.90
2022-12-04T08:04:15.672Z,1015.96
2022-12-04T08:05:15.531Z,1015.91
2022-12-04T08:06:15.542Z,1015.92
2022-12-04T08:07:15.522Z,1015.93
2022-12-04T08:08:15.583Z,1015.93
2022-12-04T08:09:15.548Z,1015.95
2022-12-04T08:10:15.519Z,1015.97
2022-12-04T08:11:15.508Z,1015.92
2022-12-04T08:12:15.501Z,1016.02
2022-12-04T08:13:15.510Z,1016.01
2022-12-04T08:14:15.493Z,1016.05
2022-12-04T08:15:15.515Z,1016.04
2022-12-04T08:16:15.597Z,1016.04
2022-12-04T08:17:15.595Z,1016.03
2022-12-04T08:18:15.478Z,1016.02
2022-12-04T08:19:15.480Z,1015.98
2022-12-04T08:20:15.476Z,1015.95
2022-12-04T08:21:15.463Z,1015.94
2022-12-04T08:22:19.128Z,1015.99
2022-12-04T08:23:15.448Z,1016.02
2022-12-04T08:24:15.444Z,1016.03
2022-12-04T08:25:15.448Z,1015.99
2022-12-04T08:26:15.438Z,1016.00
2022-12-04T08:27:15.433Z,1016.03
2022-12-04T08:28:15.433Z,1016.05
2022-12-04T08:29:15.416Z,1016.01
2022-12-04T08:30:15.412Z,1015.98
2022-12-04T08:31:15.547Z,1016.03
2022-12-04T08:32:15.446Z,1016.03
2022-12-04T08:33:15.401Z,1016.05
2022-12-04T08:34:15.419Z,1016.09
2022-12-04T08:35:15.390Z,1016.06
2022-12-04T08:36:15.390Z,1016.01
2022-12-04T08:37:15.382Z,1015.99
2022-12-04T08:38:15.392Z,1016.03
2022-12-04T08:39:15.382Z,1015.97
2022-12-04T08:40:15.383Z,1015.98
2022-12-04T08:41:15.377Z,1016.03
2022-12-04T08:42:15.390Z,1016.07
2022-12-04T08:43:15.366Z,1016.02
2022-12-04T08:44:15.365Z,1016.04
2022-12-04T08:45:15.354Z,1016.03
2022-12-04T08:46:15.388Z,1016.04
2022-12-04T08:47:15.363Z,1016.06
2022-12-04T08:48:15.350Z,1016.04
2022-12-04T08:49:15.323Z,1015.97
2022-12-04T08:50:15.324Z,1015.99
2022-12-04T08:51:15.325Z,1015.98
2022-12-04T08:52:15.307Z,1015.99
2022-12-04T08:53:15.324Z,1015.99
2022-12-04T08:54:15.308Z,1015.95
2022-12-04T08:55:15.295Z,1015.94
2022-12-04T08:56:15.289Z,1015.95
2022-12-04T08:57:15.357Z,1015.94
2022-12-04T08:58:15.288Z,1015.94
2022-12-04T08:59:15.298Z,1015.92
2022-12-04T09:00:15.285Z,1015.90
2022-12-04T09:01:15.341Z,1015.95
2022-12-04T09:02:15.256Z,1015.97
2022-12-04T09:03:15.261Z,1015.94
2022-12-04T09:04:15.341Z,1015.95
2022-12-04T09:05:15.259Z,1015.97
2022-12-04T09:06:15.241Z,1016.00
2022-12-04T09:07:15.238Z,1015.91
2022-12-04T09:08:15.303Z,1016.04
2022-12-04T09:09:15.256Z,1016.03
2022-12-04T09:10:15.224Z,1016.07
2022-12-04T09:11:15.228Z,1016.04
2022-12-04T09:12:15.224Z,1016.11
2022-12-04T09:13:15.207Z,1016.13
2022-12-04T09:14:15.218Z,1016.12
2022-12-04T09:15:15.229Z,1016.11
2022-12-04T09:16:15.257Z,1016.11
2022-12-04T09:17:15.201Z,1016.12
2022-12-04T09:18:15.202Z,1016.22
2022-12-04T09:19:15.212Z,1016.15
2022-12-04T09:20:15.192Z,1016.18
2022-12-04T09:21:15.198Z,1016.14
2022-12-04T09:22:15.176Z,1016.14
2022-12-04T09:23:15.162Z,1016.17
2022-12-04T09:24:15.174Z,1016.16
2022-12-04T09:25:15.165Z,1016.19
2022-12-04T09:26:15.173Z,1016.18
2022-12-04T09:27:15.291Z,1016.11
2022-12-04T09:28:15.155Z,1016.11
2022-12-04T09:29:15.144Z,1016.07
2022-12-04T09:30:15.135Z,1016.09
2022-12-04T09:31:15.213Z,1016.05
2022-12-04T09:32:15.129Z,1016.07
2022-12-04T09:33:15.136Z,1016.04
2022-12-04T09:34:15.108Z,1016.03
2022-12-04T09:35:15.107Z,1016.02
2022-12-04T09:36:15.107Z,1016.07
2022-12-04T09:37:15.112Z,1016.04
2022-12-04T09:38:15.108Z,1016.03
2022-12-04T09:39:15.113Z,1016.02
2022-12-04T09:40:15.078Z,1015.98
2022-12-04T09:41:15.085Z,1015.94
2022-12-04T09:42:15.083Z,1015.97
2022-12-04T09:43:15.076Z,1016.00
2022-12-04T09:44:15.089Z,1015.98
2022-12-04T09:45:15.067Z,1015.97
2022-12-04T09:46:15.114Z,1015.97
2022-12-04T09:47:15.057Z,1015.96
2022-12-04T09:48:15.059Z,1015.96
2022-12-04T09:49:15.057Z,1015.96
2022-12-04T09:50:15.036Z,1015.98
2022-12-04T09:51:15.031Z,1016.01
2022-12-04T09:52:20.293Z,1015.94
2022-12-04T09:53:15.033Z,1015.91
2022-12-04T09:54:15.013Z,1015.97
2022-12-04T09:55:15.013Z,1015.96
2022-12-04T09:56:15.025Z,1015.91
2022-12-04T09:57:15.014Z,1015.92
2022-12-04T09:58:14.996Z,1015.81
2022-12-04T09:59:15.007Z,1015.86
2022-12-04T10:00:14.996Z,1015.83
2022-12-04T10:01:14.996Z,1015.79
2022-12-04T10:02:15.020Z,1015.80
2022-12-04T10:03:15.115Z,1015.78
2022-12-04T10:04:15.063Z,1015.78
2022-12-04T10:05:14.977Z,1015.74
2022-12-04T10:06:14.955Z,1015.71
2022-12-04T10:07:14.955Z,1015.73
2022-12-04T10:08:15.030Z,1015.71
2022-12-04T10:09:15.043Z,1015.72
2022-12-04T10:10:14.944Z,1015.74
2022-12-04T10:11:14.961Z,1015.72
2022-12-04T10:12:14.950Z,1015.72
2022-12-04T10:13:14.940Z,1015.67
2022-12-04T10:14:14.944Z,1015.65
2022-12-04T10:15:14.918Z,1015.65
2022-12-04T10:16:15.019Z,1015.65
2022-12-04T10:17:14.911Z,1015.60
2022-12-04T10:18:14.906Z,1015.58
2022-12-04T10:19:14.913Z,1015.57
2022-12-04T10:20:14.914Z,1015.54
2022-12-04T10:21:14.903Z,1015.49
2022-12-04T10:22:14.894Z,1015.53
2022-12-04T10:23:14.883Z,1015.52
2022-12-04T10:24:14.875Z,1015.53
2022-12-04T10:25:14.900Z,1015.55
2022-12-04T10:26:14.882Z,1015.48
2022-12-04T10:27:14.875Z,1015.49
2022-12-04T10:28:14.871Z,1015.46
2022-12-04T10:29:14.874Z,1015.49
2022-12-04T10:30:14.864Z,1015.43
2022-12-04T10:31:14.900Z,1015.41
2022-12-04T10:32:14.843Z,1015.42
2022-12-04T10:33:14.851Z,1015.40
2022-12-04T10:34:14.831Z,1015.37
2022-12-04T10:35:14.839Z,1015.45
2022-12-04T10:36:14.841Z,1015.43
2022-12-04T10:37:14.829Z,1015.42
2022-12-04T10:38:14.843Z,1015.40
2022-12-04T10:39:14.819Z,1015.39
2022-12-04T10:40:14.811Z,1015.45
2022-12-04T10:41:15.376Z,1015.45
2022-12-04T10:42:14.825Z,1015.47
2022-12-04T10:43:14.802Z,1015.41
2022-12-04T10:44:14.804Z,1015.44
2022-12-04T10:45:14.793Z,1015.37
2022-12-04T10:46:14.829Z,1015.45
2022-12-04T10:47:14.898Z,1015.46
2022-12-04T10:48:14.769Z,1015.43
2022-12-04T10:49:14.800Z,1015.42
2022-12-04T10:50:14.777Z,1015.45
2022-12-04T10:51:14.772Z,1015.42
2022-12-04T10:52:14.762Z,1015.40
2022-12-04T10:53:14.748Z,1015.42
2022-12-04T10:54:14.740Z,1015.36
2022-12-04T10:55:14.767Z,1015.34
2022-12-04T10:56:14.754Z,1015.37
2022-12-04T10:57:14.740Z,1015.42
2022-12-04T10:58:14.749Z,1015.37
2022-12-04T10:59:14.727Z,1015.29
2022-12-04T11:00:14.710Z,1015.28
2022-12-04T11:01:14.722Z,1015.28
2022-12-04T11:02:14.800Z,1015.28
2022-12-04T11:03:14.737Z,1015.27
2022-12-04T11:04:14.724Z,1015.32
2022-12-04T11:05:14.697Z,1015.31
2022-12-04T11:06:14.713Z,1015.26
2022-12-04T11:07:14.680Z,1015.32
2022-12-04T11:08:19.712Z,1015.30
2022-12-04T11:09:14.695Z,1015.25
2022-12-04T11:10:14.690Z,1015.22
2022-12-04T11:11:14.677Z,1015.23
2022-12-04T11:12:14.676Z,1015.28
2022-12-04T11:13:14.665Z,1015.21
2022-12-04T11:14:14.656Z,1015.23
2022-12-04T11:15:14.902Z,1015.26
2022-12-04T11:16:14.663Z,1015.26
2022-12-04T11:17:14.643Z,1015.22
2022-12-04T11:18:14.631Z,1015.19
2022-12-04T11:19:14.624Z,1015.19
2022-12-04T11:20:14.637Z,1015.20
2022-12-04T11:21:14.642Z,1015.25
2022-12-04T11:22:14.616Z,1015.19
2022-12-04T11:23:14.605Z,1015.19
2022-12-04T11:24:14.608Z,1015.18
2022-12-04T11:25:14.608Z,1015.17
2022-12-04T11:26:14.607Z,1015.20
2022-12-04T11:27:14.600Z,1015.21
2022-12-04T11:28:33.604Z,1015.20
2022-12-04T11:29:14.586Z,1015.20
2022-12-04T11:30:14.575Z,1015.15
2022-12-04T11:31:14.630Z,1015.11
2022-12-04T11:32:14.601Z,1015.07
2022-12-04T11:33:14.573Z,1015.12
2022-12-04T11:34:14.577Z,1015.10
2022-12-04T11:35:14.630Z,1015.07
2022-12-04T11:36:14.578Z,1015.06
2022-12-04T11:37:14.568Z,1015.15
2022-12-04T11:38:14.556Z,1015.13
2022-12-04T11:39:14.551Z,1015.17
2022-12-04T11:40:14.547Z,1015.14
2022-12-04T11:41:14.534Z,1015.12
2022-12-04T11:42:14.556Z,1015.15
2022-12-04T11:43:14.533Z,1015.18
2022-12-04T11:44:14.524Z,1015.11
2022-12-04T11:45:14.512Z,1015.06
2022-12-04T11:46:14.561Z,1015.04
2022-12-04T11:47:14.579Z,1015.03
2022-12-04T11:48:14.503Z,1015.01
2022-12-04T11:49:14.490Z,1014.98
2022-12-04T11:50:14.509Z,1015.02
2022-12-04T11:51:14.498Z,1014.99
2022-12-04T11:52:14.507Z,1014.95
2022-12-04T11:53:14.495Z,1014.96
2022-12-04T11:54:14.488Z,1014.87
2022-12-04T11:55:14.466Z,1014.92
2022-12-04T11:56:14.476Z,1014.92
2022-12-04T11:57:14.466Z,1014.98
2022-12-04T11:58:14.467Z,1014.90
2022-12-04T11:59:14.454Z,1014.87
2022-12-04T12:00:14.446Z,1014.86
2022-12-04T12:01:14.450Z,1014.87
2022-12-04T12:02:14.554Z,1014.78
2022-12-04T12:03:14.588Z,1014.85
2022-12-04T12:04:14.439Z,1014.91
2022-12-04T12:05:14.420Z,1014.89
2022-12-04T12:06:14.429Z,1014.88
2022-12-04T12:07:14.443Z,1014.84